createdAt,value
2022-08-01T00:01:09.000Z,100
2022-08-01T00:02:25.000Z,100
2022-08-01T00:03:41.000Z,100
2022-08-01T00:04:57.000Z,100
2022-08-01T00:06:13.000Z,100
2022-08-01T00:07:29.000Z,100
2022-08-01T00:08:45.000Z,100
2022-08-01T00:10:01.000Z,100
2022-08-01T00:11:17.000Z,100
2022-08-01T00:12:33.000Z,100
2022-08-01T00:13:49.000Z,100
2022-08-01T00:15:06.000Z,100
2022-08-01T00:16:22.000Z,100
2022-08-01T00:17:38.597Z,100
2022-08-01T00:18:54.000Z,100
2022-08-01T00:20:10.884Z,100
2022-08-01T00:21:26.000Z,100
2022-08-01T00:22:41.000Z,100
2022-08-01T00:23:58.000Z,100
2022-08-01T00:25:14.000Z,100
2022-08-01T00:26:30.623Z,100
2022-08-01T00:27:46.000Z,100
2022-08-01T00:29:02.000Z,100
2022-08-01T00:30:19.065Z,100
2022-08-01T00:31:34.000Z,100
2022-08-01T00:32:51.000Z,100
2022-08-01T00:34:07.000Z,100
2022-08-01T00:35:23.639Z,100
2022-08-01T00:36:39.000Z,100
2022-08-01T00:37:55.000Z,100
2022-08-01T00:39:10.000Z,100
2022-08-01T00:40:27.000Z,100
2022-08-01T00:41:43.387Z,100
2022-08-01T00:42:59.533Z,100
2022-08-01T00:44:15.677Z,100
2022-08-01T00:45:31.000Z,100
2022-08-01T00:46:46.000Z,100
2022-08-01T00:48:03.135Z,100
2022-08-01T00:49:19.000Z,100
2022-08-01T00:50:35.421Z,100
2022-08-01T00:51:51.000Z,100
2022-08-01T00:53:07.000Z,100
2022-08-01T00:54:23.000Z,100
2022-08-01T00:55:39.000Z,100
2022-08-01T00:56:55.000Z,100
2022-08-01T00:58:12.000Z,100
2022-08-01T00:59:28.000Z,100
2022-08-01T01:00:44.000Z,100
2022-08-01T01:02:00.000Z,100
2022-08-01T01:03:15.000Z,100
2022-08-01T01:04:31.000Z,100
2022-08-01T01:05:47.000Z,100
2022-08-01T01:07:04.000Z,100
2022-08-01T01:08:20.000Z,100
2022-08-01T01:09:36.617Z,100
2022-08-01T01:10:52.763Z,100
2022-08-01T01:12:08.906Z,100
2022-08-01T01:13:24.000Z,100
2022-08-01T01:14:40.000Z,100
2022-08-01T01:15:57.000Z,100
2022-08-01T01:17:13.000Z,100
2022-08-01T01:18:29.660Z,100
2022-08-01T01:19:44.000Z,100
2022-08-01T01:21:00.000Z,100
2022-08-01T01:22:16.000Z,100
2022-08-01T01:23:33.000Z,100
2022-08-01T01:24:49.000Z,100
2022-08-01T01:26:05.525Z,100
2022-08-01T01:27:21.000Z,100
2022-08-01T01:28:37.824Z,100
2022-08-01T01:29:53.000Z,100
2022-08-01T01:31:09.000Z,100
2022-08-01T01:32:26.000Z,100
2022-08-01T01:33:42.400Z,100
2022-08-01T01:34:58.000Z,100
2022-08-01T01:36:13.715Z,100
2022-08-01T01:37:29.000Z,100
2022-08-01T01:38:45.000Z,100
2022-08-01T01:40:01.000Z,100
2022-08-01T01:41:18.000Z,100
2022-08-01T01:42:34.427Z,100
2022-08-01T01:43:50.000Z,100
2022-08-01T01:45:06.000Z,100
2022-08-01T01:46:22.000Z,100
2022-08-01T01:47:38.000Z,100
2022-08-01T01:48:54.000Z,100
2022-08-01T01:50:11.000Z,100
2022-08-01T01:51:27.000Z,100
2022-08-01T01:52:42.000Z,100
2022-08-01T01:53:58.000Z,100
2022-08-01T01:55:14.000Z,100
2022-08-01T01:56:30.000Z,100
2022-08-01T01:57:46.000Z,100
2022-08-01T01:59:03.334Z,100
2022-08-01T02:00:19.000Z,100
2022-08-01T02:01:35.000Z,100
2022-08-01T02:02:51.000Z,100
2022-08-01T02:04:07.000Z,100
2022-08-01T02:05:23.000Z,100
2022-08-01T02:06:39.000Z,100
2022-08-01T02:07:56.000Z,100
2022-08-01T02:09:11.000Z,100
2022-08-01T02:10:27.000Z,100
2022-08-01T02:11:43.805Z,100
2022-08-01T02:12:59.000Z,100
2022-08-01T02:14:15.000Z,100
2022-08-01T02:15:32.000Z,100
2022-08-01T02:16:48.388Z,100
2022-08-01T02:18:04.000Z,100
2022-08-01T02:19:20.000Z,100
2022-08-01T02:20:36.000Z,100
2022-08-01T02:21:52.000Z,100
2022-08-01T02:23:08.000Z,100
2022-08-01T02:24:25.000Z,100
2022-08-01T02:25:40.000Z,100
2022-08-01T02:26:56.000Z,100
2022-08-01T02:28:12.000Z,100
2022-08-01T02:29:28.000Z,100
2022-08-01T02:30:44.000Z,100
2022-08-01T02:32:00.000Z,100
2022-08-01T02:33:17.000Z,100
2022-08-01T02:34:33.000Z,100
2022-08-01T02:35:49.000Z,100
2022-08-01T02:37:05.000Z,100
2022-08-01T02:38:21.000Z,100
2022-08-01T02:39:37.000Z,100
2022-08-01T02:40:54.166Z,100
2022-08-01T02:42:09.000Z,100
2022-08-01T02:43:25.000Z,100
2022-08-01T02:44:41.000Z,100
2022-08-01T02:45:57.000Z,100
2022-08-01T02:47:13.000Z,100
2022-08-01T02:48:29.000Z,100
2022-08-01T02:49:46.191Z,100
2022-08-01T02:51:02.000Z,100
2022-08-01T02:52:18.480Z,100
2022-08-01T02:53:34.000Z,100
2022-08-01T02:54:50.000Z,100
2022-08-01T02:56:06.000Z,100
2022-08-01T02:57:22.000Z,100
2022-08-01T02:58:38.226Z,100
2022-08-01T02:59:54.000Z,100
2022-08-01T03:01:10.000Z,100
2022-08-01T03:02:26.657Z,100
2022-08-01T03:03:42.000Z,100
2022-08-01T03:04:58.000Z,100
2022-08-01T03:06:14.000Z,100
2022-08-01T03:07:31.000Z,100
2022-08-01T03:08:47.000Z,100
2022-08-01T03:10:03.533Z,100
2022-08-01T03:11:19.000Z,100
2022-08-01T03:12:35.000Z,100
2022-08-01T03:13:52.002Z,100
2022-08-01T03:15:06.000Z,100
2022-08-01T03:16:23.000Z,100
2022-08-01T03:17:39.000Z,100
2022-08-01T03:18:55.000Z,100
2022-08-01T03:20:11.000Z,100
2022-08-01T03:21:27.000Z,100
2022-08-01T03:22:43.000Z,100
2022-08-01T03:23:59.000Z,100
2022-08-01T03:25:16.298Z,100
2022-08-01T03:26:32.000Z,100
2022-08-01T03:27:48.000Z,100
2022-08-01T03:29:04.000Z,100
2022-08-01T03:30:20.000Z,100
2022-08-01T03:31:35.000Z,100
2022-08-01T03:32:51.000Z,100
2022-08-01T03:34:08.000Z,100
2022-08-01T03:35:24.000Z,100
2022-08-01T03:36:40.000Z,100
2022-08-01T03:37:56.000Z,100
2022-08-01T03:39:12.000Z,100
2022-08-01T03:40:28.000Z,100
2022-08-01T03:41:44.000Z,100
2022-08-01T03:43:01.000Z,100
2022-08-01T03:44:17.000Z,100
2022-08-01T03:45:33.000Z,100
2022-08-01T03:46:49.000Z,100
2022-08-01T03:48:04.000Z,100
2022-08-01T03:49:20.000Z,100
2022-08-01T03:50:36.000Z,100
2022-08-01T03:51:53.375Z,100
2022-08-01T03:53:09.516Z,100
2022-08-01T03:54:25.000Z,100
2022-08-01T03:55:41.000Z,100
2022-08-01T03:56:57.000Z,100
2022-08-01T03:58:13.000Z,100
2022-08-01T03:59:30.000Z,100
2022-08-01T04:00:46.000Z,100
2022-08-01T04:02:02.000Z,100
2022-08-01T04:03:18.000Z,100
2022-08-01T04:04:33.000Z,100
2022-08-01T04:05:49.000Z,100
2022-08-01T04:07:05.000Z,100
2022-08-01T04:08:22.000Z,100
2022-08-01T04:09:38.000Z,100
2022-08-01T04:10:54.566Z,100
2022-08-01T04:12:10.000Z,100
2022-08-01T04:13:26.000Z,100
2022-08-01T04:14:42.000Z,100
2022-08-01T04:15:58.000Z,100
2022-08-01T04:17:15.000Z,100
2022-08-01T04:18:31.000Z,100
2022-08-01T04:19:47.587Z,100
2022-08-01T04:21:02.000Z,100
2022-08-01T04:22:18.000Z,100
2022-08-01T04:23:34.000Z,100
2022-08-01T04:24:50.000Z,100
2022-08-01T04:26:07.000Z,100
2022-08-01T04:27:23.000Z,100
2022-08-01T04:28:39.619Z,100
2022-08-01T04:29:55.762Z,100
2022-08-01T04:31:11.000Z,100
2022-08-01T04:32:27.000Z,100
2022-08-01T04:33:43.000Z,100
2022-08-01T04:35:00.000Z,100
2022-08-01T04:36:16.000Z,100
2022-08-01T04:37:31.655Z,100
2022-08-01T04:38:47.797Z,100
2022-08-01T04:40:03.000Z,100
2022-08-01T04:41:20.084Z,100
2022-08-01T04:42:36.000Z,100
2022-08-01T04:43:52.000Z,100
2022-08-01T04:45:08.000Z,100
2022-08-01T04:46:24.669Z,100
2022-08-01T04:47:40.000Z,100
2022-08-01T04:48:56.000Z,100
2022-08-01T04:50:13.098Z,100
2022-08-01T04:51:29.245Z,100
2022-08-01T04:52:45.000Z,100
2022-08-01T04:54:00.563Z,100
2022-08-01T04:55:16.000Z,100
2022-08-01T04:56:32.000Z,100
2022-08-01T04:57:48.000Z,100
2022-08-01T04:59:04.000Z,100
2022-08-01T05:00:21.284Z,100
2022-08-01T05:01:36.000Z,100
2022-08-01T05:02:52.000Z,100
2022-08-01T05:04:08.000Z,100
2022-08-01T05:05:24.000Z,100
2022-08-01T05:06:40.000Z,100
2022-08-01T05:07:56.000Z,100
2022-08-01T05:09:13.000Z,100
2022-08-01T05:10:29.000Z,100
2022-08-01T05:11:45.000Z,100
2022-08-01T05:13:01.000Z,100
2022-08-01T05:14:17.000Z,100
2022-08-01T05:15:33.000Z,100
2022-08-01T05:16:49.000Z,100
2022-08-01T05:18:05.000Z,100
2022-08-01T05:19:21.000Z,100
2022-08-01T05:20:37.000Z,100
2022-08-01T05:21:53.803Z,100
2022-08-01T05:23:09.000Z,100
2022-08-01T05:24:26.078Z,100
2022-08-01T05:25:41.000Z,100
2022-08-01T05:26:58.367Z,100
2022-08-01T05:28:14.000Z,100
2022-08-01T05:29:30.000Z,100
2022-08-01T05:30:46.808Z,100
2022-08-01T05:32:02.000Z,100
2022-08-01T05:33:18.000Z,100
2022-08-01T05:34:34.000Z,100
2022-08-01T05:35:50.000Z,100
2022-08-01T05:37:06.000Z,100
2022-08-01T05:38:22.691Z,100
2022-08-01T05:39:38.000Z,100
2022-08-01T05:40:54.000Z,100
2022-08-01T05:42:10.000Z,100
2022-08-01T05:43:27.000Z,100
2022-08-01T05:44:43.416Z,100
2022-08-01T05:45:59.560Z,100
2022-08-01T05:47:15.000Z,100
2022-08-01T05:48:31.000Z,100
2022-08-01T05:49:47.000Z,100
2022-08-01T05:51:02.000Z,100
2022-08-01T05:52:19.000Z,100
2022-08-01T05:53:35.000Z,100
2022-08-01T05:54:51.000Z,100
2022-08-01T05:56:07.739Z,100
2022-08-01T05:57:23.000Z,100
2022-08-01T05:58:39.000Z,100
2022-08-01T05:59:55.000Z,100
2022-08-01T06:01:12.000Z,100
2022-08-01T06:02:28.000Z,100
2022-08-01T06:03:44.000Z,100
2022-08-01T06:05:00.763Z,100
2022-08-01T06:06:16.899Z,100
2022-08-01T06:07:31.000Z,100
2022-08-01T06:08:47.000Z,100
2022-08-01T06:10:04.000Z,100
2022-08-01T06:11:20.000Z,100
2022-08-01T06:12:36.000Z,100
2022-08-01T06:13:52.000Z,100
2022-08-01T06:15:08.000Z,100
2022-08-01T06:16:24.000Z,100
2022-08-01T06:17:41.000Z,100
2022-08-01T06:18:57.000Z,100
2022-08-01T06:20:13.000Z,100
2022-08-01T06:21:29.000Z,100
2022-08-01T06:22:45.000Z,100
2022-08-01T06:24:00.000Z,100
2022-08-01T06:25:16.000Z,100
2022-08-01T06:26:33.000Z,100
2022-08-01T06:27:49.423Z,100
2022-08-01T06:29:05.000Z,100
2022-08-01T06:30:21.000Z,100
2022-08-01T06:31:37.000Z,100
2022-08-01T06:32:53.000Z,100
2022-08-01T06:34:09.000Z,100
2022-08-01T06:35:26.000Z,100
2022-08-01T06:36:42.000Z,100
2022-08-01T06:37:58.000Z,100
2022-08-01T06:39:14.000Z,100
2022-08-01T06:40:29.000Z,100
2022-08-01T06:41:46.055Z,100
2022-08-01T06:43:01.000Z,100
2022-08-01T06:44:18.000Z,100
2022-08-01T06:45:34.000Z,100
2022-08-01T06:46:50.000Z,100
2022-08-01T06:48:06.000Z,100
2022-08-01T06:49:22.000Z,100
2022-08-01T06:50:38.000Z,100
2022-08-01T06:51:54.000Z,100
2022-08-01T06:53:11.000Z,98.9
2022-08-01T06:54:27.000Z,98.3
2022-08-01T06:55:43.000Z,98.1
2022-08-01T06:56:58.828Z,98.7
2022-08-01T06:58:14.000Z,99
2022-08-01T06:59:30.000Z,98.4
2022-08-01T07:00:47.000Z,99
2022-08-01T07:02:03.000Z,99.9
2022-08-01T07:03:19.000Z,100
2022-08-01T07:04:35.000Z,99.6
2022-08-01T07:05:51.872Z,98.7
2022-08-01T07:07:07.000Z,98.3
2022-08-01T07:08:23.000Z,98.8
2022-08-01T07:09:40.000Z,99.4
2022-08-01T07:10:56.440Z,98.9
2022-08-01T07:12:12.000Z,99.1
2022-08-01T07:13:27.000Z,98.4
2022-08-01T07:14:43.896Z,97.2
2022-08-01T07:16:00.043Z,98
2022-08-01T07:17:16.187Z,99.3
2022-08-01T07:18:32.000Z,99.5
2022-08-01T07:19:48.481Z,99.4
2022-08-01T07:21:04.000Z,99
2022-08-01T07:22:20.000Z,98.5
2022-08-01T07:23:36.922Z,98
2022-08-01T07:24:52.000Z,97.8
2022-08-01T07:26:09.222Z,97.8
2022-08-01T07:27:25.000Z,97.7
2022-08-01T07:28:41.000Z,96.7
2022-08-01T07:29:56.000Z,96.5
2022-08-01T07:31:12.000Z,96
2022-08-01T07:32:28.000Z,94.6
2022-08-01T07:33:44.000Z,91.1
2022-08-01T07:35:01.262Z,90.2
2022-08-01T07:36:17.000Z,90.3
2022-08-01T07:37:33.000Z,91.7
2022-08-01T07:38:49.000Z,92.5
2022-08-01T07:40:05.000Z,91.6
2022-08-01T07:41:21.000Z,89.3
2022-08-01T07:42:38.135Z,88.2
2022-08-01T07:43:54.000Z,88.2
2022-08-01T07:45:10.000Z,86.5
2022-08-01T07:46:25.591Z,87
2022-08-01T07:47:41.000Z,85.3
2022-08-01T07:48:57.000Z,85.1
2022-08-01T07:50:13.000Z,85.8
2022-08-01T07:51:29.000Z,87
2022-08-01T07:52:46.000Z,84.5
2022-08-01T07:54:02.000Z,85.7
2022-08-01T07:55:18.000Z,85.1
2022-08-01T07:56:34.000Z,82.8
2022-08-01T07:57:50.000Z,80.6
2022-08-01T07:59:06.000Z,80.4
2022-08-01T08:00:22.000Z,82.9
2022-08-01T08:01:39.000Z,80.6
2022-08-01T08:02:54.000Z,79.9
2022-08-01T08:04:10.666Z,82.2
2022-08-01T08:05:26.000Z,80.8
2022-08-01T08:06:42.000Z,79.2
2022-08-01T08:07:58.000Z,76.9
2022-08-01T08:09:15.000Z,78.1
2022-08-01T08:10:31.000Z,79.9
2022-08-01T08:11:47.553Z,78.8
2022-08-01T08:13:03.000Z,77.5
2022-08-01T08:14:19.832Z,79.3
2022-08-01T08:15:35.000Z,78.7
2022-08-01T08:16:51.000Z,78.8
2022-08-01T08:18:08.000Z,77.5
2022-08-01T08:19:23.000Z,76.5
2022-08-01T08:20:39.580Z,76.1
2022-08-01T08:21:55.000Z,75.8
2022-08-01T08:23:11.000Z,72.3
2022-08-01T08:24:27.000Z,71.3
2022-08-01T08:25:43.000Z,72.4
2022-08-01T08:27:00.000Z,71.6
2022-08-01T08:28:16.460Z,73.3
2022-08-01T08:29:32.000Z,71.9
2022-08-01T08:30:48.000Z,72
2022-08-01T08:32:04.000Z,72.6
2022-08-01T08:33:20.000Z,72.1
2022-08-01T08:34:36.000Z,71.8
2022-08-01T08:35:52.000Z,71.3
2022-08-01T08:37:08.000Z,73
2022-08-01T08:38:24.000Z,70.8
2022-08-01T08:39:40.000Z,70
2022-08-01T08:40:56.000Z,70.9
2022-08-01T08:42:12.000Z,70
2022-08-01T08:43:29.000Z,69.4
2022-08-01T08:44:45.000Z,68.7
2022-08-01T08:46:01.000Z,68.8
2022-08-01T08:47:17.000Z,72.1
2022-08-01T08:48:33.000Z,70.5
2022-08-01T08:49:49.000Z,71.7
2022-08-01T08:51:05.000Z,70.7
2022-08-01T08:52:21.000Z,70.5
2022-08-01T08:53:37.430Z,69.8
2022-08-01T08:54:53.000Z,71.8
2022-08-01T08:56:09.000Z,70.4
2022-08-01T08:57:25.000Z,68.6
2022-08-01T08:58:41.000Z,71.3
2022-08-01T08:59:57.000Z,72.2
2022-08-01T09:01:14.000Z,69.1
2022-08-01T09:02:30.000Z,70.6
2022-08-01T09:03:46.000Z,69.4
2022-08-01T09:05:02.000Z,69.4
2022-08-01T09:06:18.000Z,67.8
2022-08-01T09:07:34.000Z,68.7
2022-08-01T09:08:50.214Z,68.5
2022-08-01T09:10:06.000Z,70.3
2022-08-01T09:11:22.000Z,70.6
2022-08-01T09:12:38.665Z,67.9
2022-08-01T09:13:54.000Z,69.3
2022-08-01T09:15:10.000Z,69.6
2022-08-01T09:16:25.000Z,65.5
2022-08-01T09:17:42.000Z,68.6
2022-08-01T09:18:58.000Z,69.3
2022-08-01T09:20:14.000Z,68.9
2022-08-01T09:21:30.000Z,70
2022-08-01T09:22:46.000Z,67.8
2022-08-01T09:24:02.000Z,66.7
2022-08-01T09:25:19.139Z,65.3
2022-08-01T09:26:35.000Z,68.2
2022-08-01T09:27:51.000Z,68.5
2022-08-01T09:29:07.000Z,70.8
2022-08-01T09:30:23.000Z,68.1
2022-08-01T09:31:39.000Z,68.7
2022-08-01T09:32:54.000Z,67.9
2022-08-01T09:34:10.000Z,67.5
2022-08-01T09:35:27.000Z,69.3
2022-08-01T09:36:43.000Z,67
2022-08-01T09:37:59.000Z,66.7
2022-08-01T09:39:15.000Z,66.1
2022-08-01T09:40:31.000Z,67.5
2022-08-01T09:41:47.000Z,67.9
2022-08-01T09:43:03.000Z,65.1
2022-08-01T09:44:20.000Z,66
2022-08-01T09:45:36.000Z,65.3
2022-08-01T09:46:52.000Z,66.7
2022-08-01T09:48:08.800Z,66.4
2022-08-01T09:49:23.000Z,66.1
2022-08-01T09:50:39.000Z,63.6
2022-08-01T09:51:56.000Z,63.9
2022-08-01T09:53:12.410Z,65
2022-08-01T09:54:28.000Z,66.4
2022-08-01T09:55:44.000Z,64.6
2022-08-01T09:57:00.000Z,61.8
2022-08-01T09:58:16.000Z,64.2
2022-08-01T09:59:33.138Z,64.3
2022-08-01T10:00:49.000Z,64.3
2022-08-01T10:02:05.000Z,62.6
2022-08-01T10:03:21.000Z,63.6
2022-08-01T10:04:37.000Z,65.9
2022-08-01T10:05:52.000Z,65
2022-08-01T10:07:08.000Z,63.8
2022-08-01T10:08:24.000Z,64.3
2022-08-01T10:09:41.000Z,64.2
2022-08-01T10:10:57.000Z,61.7
2022-08-01T10:12:13.000Z,62.2
2022-08-01T10:13:29.778Z,60.7
2022-08-01T10:14:45.000Z,61.4
2022-08-01T10:16:01.000Z,63
2022-08-01T10:17:17.000Z,61.9
2022-08-01T10:18:34.000Z,61.8
2022-08-01T10:19:50.498Z,62.8
2022-08-01T10:21:06.000Z,63.4
2022-08-01T10:22:21.000Z,66.5
2022-08-01T10:23:37.000Z,67
2022-08-01T10:24:53.000Z,63.6
2022-08-01T10:26:10.000Z,62
2022-08-01T10:27:26.000Z,62.6
2022-08-01T10:28:42.000Z,60.5
2022-08-01T10:29:58.000Z,60.2
2022-08-01T10:31:14.839Z,59.4
2022-08-01T10:32:30.000Z,61.1
2022-08-01T10:33:46.000Z,60.4
2022-08-01T10:35:03.000Z,59.5
2022-08-01T10:36:19.000Z,59.7
2022-08-01T10:37:35.000Z,60.5
2022-08-01T10:38:50.000Z,59.9
2022-08-01T10:40:06.000Z,59.3
2022-08-01T10:41:22.000Z,60
2022-08-01T10:42:38.000Z,60.5
2022-08-01T10:43:55.000Z,61.7
2022-08-01T10:45:11.000Z,58.8
2022-08-01T10:46:27.617Z,60.6
2022-08-01T10:47:43.000Z,60.1
2022-08-01T10:48:59.000Z,59.9
2022-08-01T10:50:16.049Z,57.9
2022-08-01T10:51:31.000Z,60.3
2022-08-01T10:52:48.000Z,61.2
2022-08-01T10:54:04.000Z,60.1
2022-08-01T10:55:19.000Z,60.5
2022-08-01T10:56:35.000Z,62.2
2022-08-01T10:57:51.000Z,59.4
2022-08-01T10:59:07.000Z,61.8
2022-08-01T11:00:24.000Z,59.4
2022-08-01T11:01:40.000Z,58.6
2022-08-01T11:02:56.000Z,60.2
2022-08-01T11:04:12.000Z,60.7
2022-08-01T11:05:28.000Z,61.6
2022-08-01T11:06:44.000Z,59.6
2022-08-01T11:08:00.000Z,59.9
2022-08-01T11:09:17.000Z,60.1
2022-08-01T11:10:33.000Z,59.4
2022-08-01T11:11:48.574Z,59.4
2022-08-01T11:13:04.000Z,58.8
2022-08-01T11:14:20.870Z,59.3
2022-08-01T11:15:36.000Z,58.5
2022-08-01T11:16:52.000Z,60.7
2022-08-01T11:18:09.000Z,56.5
2022-08-01T11:19:25.000Z,60.4
2022-08-01T11:20:41.000Z,61.1
2022-08-01T11:21:57.000Z,61.5
2022-08-01T11:23:13.898Z,62.2
2022-08-01T11:24:29.000Z,57.4
2022-08-01T11:25:45.000Z,57.7
2022-08-01T11:27:02.000Z,60.2
2022-08-01T11:28:17.000Z,57.5
2022-08-01T11:29:33.000Z,59.5
2022-08-01T11:30:49.000Z,58.5
2022-08-01T11:32:05.000Z,60.4
2022-08-01T11:33:21.000Z,57.9
2022-08-01T11:34:38.237Z,56.2
2022-08-01T11:35:54.396Z,60.5
2022-08-01T11:37:10.000Z,59.5
2022-08-01T11:38:26.000Z,60.6
2022-08-01T11:39:42.000Z,58
2022-08-01T11:40:58.967Z,59.1
2022-08-01T11:42:14.000Z,60.1
2022-08-01T11:43:31.000Z,62.7
2022-08-01T11:44:46.000Z,61.3
2022-08-01T11:46:02.000Z,61.3
2022-08-01T11:47:18.000Z,60.2
2022-08-01T11:48:34.000Z,61.1
2022-08-01T11:49:51.013Z,60.2
2022-08-01T11:51:06.000Z,59.7
2022-08-01T11:52:23.000Z,60.4
2022-08-01T11:53:39.000Z,59.6
2022-08-01T11:54:55.000Z,61.3
2022-08-01T11:56:11.751Z,63.8
2022-08-01T11:57:27.000Z,61.4
2022-08-01T11:58:43.000Z,60.7
2022-08-01T11:59:59.000Z,58.5
2022-08-01T12:01:15.000Z,60.4
2022-08-01T12:02:31.000Z,58.5
2022-08-01T12:03:47.000Z,58.3
2022-08-01T12:05:03.000Z,62.3
2022-08-01T12:06:19.000Z,62
2022-08-01T12:07:35.000Z,58.4
2022-08-01T12:08:52.000Z,58.5
2022-08-01T12:10:08.000Z,60.3
2022-08-01T12:11:24.522Z,60.2
2022-08-01T12:12:40.000Z,62.1
2022-08-01T12:13:56.000Z,60.5
2022-08-01T12:15:12.000Z,59.9
2022-08-01T12:16:28.000Z,59.3
2022-08-01T12:17:44.000Z,59.3
2022-08-01T12:19:00.000Z,59.6
2022-08-01T12:20:16.000Z,60.4
2022-08-01T12:21:32.000Z,59.2
2022-08-01T12:22:48.000Z,60.1
2022-08-01T12:24:04.000Z,57
2022-08-01T12:25:20.000Z,57.7
2022-08-01T12:26:37.315Z,61.2
2022-08-01T12:27:53.000Z,59.9
2022-08-01T12:29:09.000Z,59.6
2022-08-01T12:30:25.000Z,60.4
2022-08-01T12:31:41.000Z,60.9
2022-08-01T12:32:57.000Z,61.4
2022-08-01T12:34:13.196Z,62.9
2022-08-01T12:35:29.000Z,62.1
2022-08-01T12:36:45.000Z,63.1
2022-08-01T12:38:01.000Z,61.6
2022-08-01T12:39:17.000Z,60.6
2022-08-01T12:40:33.000Z,61.6
2022-08-01T12:41:49.000Z,59.9
2022-08-01T12:43:06.000Z,58.2
2022-08-01T12:44:22.000Z,60.3
2022-08-01T12:45:38.000Z,59.7
2022-08-01T12:46:54.000Z,60.4
2022-08-01T12:48:10.000Z,59.7
2022-08-01T12:49:26.960Z,56.8
2022-08-01T12:50:41.000Z,58.1
2022-08-01T12:51:58.000Z,58.9
2022-08-01T12:53:14.000Z,58.8
2022-08-01T12:54:30.000Z,58.6
2022-08-01T12:55:46.000Z,58.6
2022-08-01T12:57:02.000Z,58.1
2022-08-01T12:58:18.000Z,57
2022-08-01T12:59:34.000Z,60.2
2022-08-01T13:00:51.000Z,56.6
2022-08-01T13:02:07.000Z,57.2
2022-08-01T13:03:23.000Z,58.1
2022-08-01T13:04:39.000Z,57.7
2022-08-01T13:05:55.000Z,56.7
2022-08-01T13:07:10.000Z,60.4
2022-08-01T13:08:26.000Z,56.6
2022-08-01T13:09:43.000Z,58.5
2022-08-01T13:10:59.000Z,59.3
2022-08-01T13:12:15.000Z,60.3
2022-08-01T13:13:31.000Z,61.3
2022-08-01T13:14:47.000Z,58.5
2022-08-01T13:16:03.000Z,59.6
2022-08-01T13:17:19.000Z,59.6
2022-08-01T13:18:36.000Z,58.6
2022-08-01T13:19:52.513Z,58.1
2022-08-01T13:21:08.000Z,59.6
2022-08-01T13:22:24.000Z,59.9
2022-08-01T13:23:39.000Z,60.5
2022-08-01T13:24:55.000Z,59.7
2022-08-01T13:26:12.000Z,57.6
2022-08-01T13:27:28.000Z,56.4
2022-08-01T13:28:44.000Z,57.5
2022-08-01T13:30:00.000Z,58.9
2022-08-01T13:31:15.898Z,60.2
2022-08-01T13:32:31.000Z,58.9
2022-08-01T13:33:47.000Z,59.9
2022-08-01T13:35:04.000Z,59.4
2022-08-01T13:36:20.000Z,60.3
2022-08-01T13:37:36.000Z,60
2022-08-01T13:38:52.000Z,60
2022-08-01T13:40:08.900Z,60.2
2022-08-01T13:41:24.000Z,59.9
2022-08-01T13:42:40.000Z,59
2022-08-01T13:43:57.000Z,60.8
2022-08-01T13:45:13.000Z,59.3
2022-08-01T13:46:29.000Z,60.5
2022-08-01T13:47:44.000Z,59.7
2022-08-01T13:49:00.000Z,59.4
2022-08-01T13:50:16.000Z,59.8
2022-08-01T13:51:33.000Z,59.5
2022-08-01T13:52:49.000Z,61.1
2022-08-01T13:54:05.000Z,60.5
2022-08-01T13:55:21.000Z,62.1
2022-08-01T13:56:37.000Z,62.2
2022-08-01T13:57:53.000Z,61.9
2022-08-01T13:59:09.000Z,65.2
2022-08-01T14:00:26.000Z,63.5
2022-08-01T14:01:42.000Z,61.3
2022-08-01T14:02:58.000Z,63.8
2022-08-01T14:04:13.000Z,60.4
2022-08-01T14:05:29.000Z,60.5
2022-08-01T14:06:45.000Z,58.2
2022-08-01T14:08:01.000Z,60.1
2022-08-01T14:09:18.325Z,61.6
2022-08-01T14:10:34.000Z,58.7
2022-08-01T14:11:50.000Z,58.9
2022-08-01T14:13:06.000Z,61.9
2022-08-01T14:14:22.000Z,61.1
2022-08-01T14:15:38.000Z,59.5
2022-08-01T14:16:54.000Z,59.7
2022-08-01T14:18:11.000Z,61
2022-08-01T14:19:27.000Z,61.9
2022-08-01T14:20:42.000Z,60.8
2022-08-01T14:21:58.000Z,60.4
2022-08-01T14:23:14.942Z,59.5
2022-08-01T14:24:30.000Z,60.4
2022-08-01T14:25:47.000Z,62.4
2022-08-01T14:27:03.000Z,60.7
2022-08-01T14:28:19.545Z,60.7
2022-08-01T14:29:35.000Z,60
2022-08-01T14:30:51.000Z,60.8
2022-08-01T14:32:07.000Z,60.5
2022-08-01T14:33:23.000Z,59.2
2022-08-01T14:34:40.000Z,60.4
2022-08-01T14:35:56.000Z,61.3
2022-08-01T14:37:11.000Z,62.2
2022-08-01T14:38:27.000Z,61.5
2022-08-01T14:39:43.000Z,60.5
2022-08-01T14:40:59.000Z,58.9
2022-08-01T14:42:15.000Z,59.6
2022-08-01T14:43:32.000Z,62
2022-08-01T14:44:48.000Z,62.8
2022-08-01T14:46:04.000Z,61.9
2022-08-01T14:47:20.000Z,60.7
2022-08-01T14:48:36.000Z,62.3
2022-08-01T14:49:52.000Z,61.5
2022-08-01T14:51:08.000Z,60.7
2022-08-01T14:52:25.000Z,59.9
2022-08-01T14:53:40.000Z,60.4
2022-08-01T14:54:56.666Z,62.8
2022-08-01T14:56:12.000Z,60.9
2022-08-01T14:57:28.000Z,61.6
2022-08-01T14:58:44.000Z,60.8
2022-08-01T15:00:01.243Z,61
2022-08-01T15:01:17.000Z,62.6
2022-08-01T15:02:33.000Z,62.9
2022-08-01T15:03:49.000Z,63.5
2022-08-01T15:05:05.000Z,63.2
2022-08-01T15:06:21.000Z,62.1
2022-08-01T15:07:37.000Z,60.7
2022-08-01T15:08:54.000Z,60.6
2022-08-01T15:10:09.000Z,60.8
2022-08-01T15:11:25.000Z,61.3
2022-08-01T15:12:41.000Z,60.8
2022-08-01T15:13:57.000Z,61.1
2022-08-01T15:15:13.000Z,60.5
2022-08-01T15:16:29.000Z,61.7
2022-08-01T15:17:46.000Z,61.9
2022-08-01T15:19:02.000Z,61
2022-08-01T15:20:18.000Z,60.5
2022-08-01T15:21:34.748Z,62.1
2022-08-01T15:22:50.000Z,61.7
2022-08-01T15:24:06.000Z,63.1
2022-08-01T15:25:22.000Z,63.1
2022-08-01T15:26:38.000Z,63.5
2022-08-01T15:27:54.000Z,65.3
2022-08-01T15:29:10.640Z,63.9
2022-08-01T15:30:26.785Z,62.4
2022-08-01T15:31:42.000Z,63
2022-08-01T15:32:58.000Z,62.9
2022-08-01T15:34:15.229Z,63.3
2022-08-01T15:35:31.000Z,63.7
2022-08-01T15:36:47.000Z,63.4
2022-08-01T15:38:03.672Z,61.2
2022-08-01T15:39:19.000Z,62.1
2022-08-01T15:40:35.000Z,63.4
2022-08-01T15:41:51.000Z,64.7
2022-08-01T15:43:07.000Z,63.5
2022-08-01T15:44:23.000Z,63.3
2022-08-01T15:45:39.000Z,62.3
2022-08-01T15:46:55.000Z,62.4
2022-08-01T15:48:11.000Z,61.2
2022-08-01T15:49:27.999Z,62.4
2022-08-01T15:50:43.000Z,60.6
2022-08-01T15:52:00.000Z,61.4
2022-08-01T15:53:16.000Z,60.2
2022-08-01T15:54:32.000Z,61
2022-08-01T15:55:48.721Z,62.3
2022-08-01T15:57:04.866Z,60.3
2022-08-01T15:58:20.000Z,60.7
2022-08-01T15:59:36.181Z,60.8
2022-08-01T16:00:52.324Z,62.2
2022-08-01T16:02:08.462Z,62.4
2022-08-01T16:03:24.000Z,61.9
2022-08-01T16:04:40.000Z,62.6
2022-08-01T16:05:56.000Z,62.7
2022-08-01T16:07:13.058Z,62.3
2022-08-01T16:08:28.000Z,61.5
2022-08-01T16:09:45.000Z,64.1
2022-08-01T16:11:01.000Z,64.8
2022-08-01T16:12:17.000Z,63.4
2022-08-01T16:13:33.000Z,63.4
2022-08-01T16:14:49.911Z,63.3
2022-08-01T16:16:04.000Z,64.4
2022-08-01T16:17:20.000Z,61.8
2022-08-01T16:18:37.368Z,62
2022-08-01T16:19:53.000Z,64.4
2022-08-01T16:21:09.000Z,61.1
2022-08-01T16:22:25.000Z,63.4
2022-08-01T16:23:41.000Z,63.1
2022-08-01T16:24:57.000Z,62.5
2022-08-01T16:26:14.000Z,63.6
2022-08-01T16:27:30.000Z,62.9
2022-08-01T16:28:46.000Z,63.6
2022-08-01T16:30:02.000Z,63.1
2022-08-01T16:31:18.000Z,63.3
2022-08-01T16:32:33.978Z,64
2022-08-01T16:33:49.000Z,63.5
2022-08-01T16:35:06.271Z,63.3
2022-08-01T16:36:22.000Z,64.1
2022-08-01T16:37:38.000Z,64.8
2022-08-01T16:38:54.000Z,66
2022-08-01T16:40:10.000Z,63
2022-08-01T16:41:27.000Z,63.7
2022-08-01T16:42:42.000Z,63.2
2022-08-01T16:43:59.000Z,64.4
2022-08-01T16:45:15.000Z,64.9
2022-08-01T16:46:31.581Z,63.6
2022-08-01T16:47:47.000Z,62.3
2022-08-01T16:49:02.000Z,62.4
2022-08-01T16:50:18.000Z,63.7
2022-08-01T16:51:34.000Z,65.3
2022-08-01T16:52:51.000Z,65.3
2022-08-01T16:54:07.000Z,65.4
2022-08-01T16:55:23.000Z,66
2022-08-01T16:56:39.000Z,65.7
2022-08-01T16:57:55.920Z,66.3
2022-08-01T16:59:11.000Z,65.5
2022-08-01T17:00:27.000Z,66.6
2022-08-01T17:01:44.000Z,67.4
2022-08-01T17:03:00.482Z,65.6
2022-08-01T17:04:16.000Z,66
2022-08-01T17:05:31.000Z,67.2
2022-08-01T17:06:47.000Z,68.3
2022-08-01T17:08:03.000Z,68.6
2022-08-01T17:09:20.000Z,67.5
2022-08-01T17:10:36.000Z,68.5